createdAt,value
2022-08-17T00:01:27.615Z,25.58
2022-08-17T00:03:54.690Z,22.70
2022-08-17T00:06:22.738Z,23.00
2022-08-17T00:08:57.448Z,22.30
2022-08-17T00:11:28.565Z,19.33
2022-08-17T00:14:01.226Z,18.52
2022-08-17T00:16:55.922Z,16.77
2022-08-17T00:19:24.046Z,15.63
2022-08-17T00:22:32.890Z,15.50
2022-08-17T00:24:38.763Z,15.32
2022-08-17T00:27:05.589Z,14.82
2022-08-17T00:29:32.379Z,14.00
2022-08-17T00:31:59.248Z,13.48
2022-08-17T00:34:27.746Z,12.75
2022-08-17T00:36:54.926Z,13.73
2022-08-17T00:39:21.843Z,12.93
2022-08-17T00:41:48.588Z,11.90
2022-08-17T00:44:16.768Z,11.10
2022-08-17T00:46:43.742Z,11.10
2022-08-17T00:49:14.502Z,10.35
2022-08-17T00:51:47.529Z,10.57
2022-08-17T00:54:29.348Z,10.80
2022-08-17T00:57:04.765Z,10.13
2022-08-17T00:59:35.050Z,9.70
2022-08-17T01:02:05.101Z,10.70
2022-08-17T01:04:31.889Z,10.43
2022-08-17T01:06:58.652Z,10.82
2022-08-17T01:09:25.434Z,10.95
2022-08-17T01:11:52.429Z,11.60
2022-08-17T01:14:21.555Z,12.00
2022-08-17T01:16:49.619Z,10.95
2022-08-17T01:19:18.166Z,11.57
2022-08-17T01:21:55.647Z,10.50
2022-08-17T01:24:22.460Z,12.07
2022-08-17T01:26:49.387Z,12.10
2022-08-17T01:29:16.566Z,11.38
2022-08-17T01:31:46.302Z,13.07
2022-08-17T01:34:14.120Z,13.20
2022-08-17T01:36:42.293Z,13.27
2022-08-17T01:39:12.088Z,12.88
2022-08-17T01:41:39.021Z,12.82
2022-08-17T01:44:07.353Z,12.32
2022-08-17T01:46:38.326Z,13.10
2022-08-17T01:49:09.428Z,12.07
2022-08-17T01:51:36.280Z,13.20
2022-08-17T01:54:06.868Z,12.55
2022-08-17T01:56:34.652Z,13.15
2022-08-17T01:59:01.634Z,13.02
2022-08-17T02:01:30.747Z,13.82
2022-08-17T02:04:01.368Z,13.50
2022-08-17T02:06:53.573Z,13.23
2022-08-17T02:09:26.214Z,14.57
2022-08-17T02:11:57.626Z,13.30
2022-08-17T02:14:24.644Z,14.10
2022-08-17T02:16:51.843Z,13.80
2022-08-17T02:19:18.895Z,13.25
2022-08-17T02:21:47.253Z,14.65
2022-08-17T02:24:18.029Z,14.15
2022-08-17T02:27:05.948Z,13.98
2022-08-17T02:29:32.756Z,13.50
2022-08-17T02:32:01.960Z,13.80
2022-08-17T02:34:29.034Z,14.55
2022-08-17T02:36:55.968Z,13.77
2022-08-17T02:39:22.821Z,13.30
2022-08-17T02:41:51.211Z,14.23
2022-08-17T02:44:39.211Z,13.93
2022-08-17T02:47:05.404Z,14.80
2022-08-17T02:49:32.306Z,13.80
2022-08-17T02:51:59.089Z,12.75
2022-08-17T02:54:40.267Z,11.63
2022-08-17T02:57:09.318Z,12.52
2022-08-17T02:59:36.196Z,13.93
2022-08-17T03:02:04.357Z,14.32
2022-08-17T03:04:31.237Z,13.38
2022-08-17T03:07:04.206Z,12.95
2022-08-17T03:09:31.295Z,13.68
2022-08-17T03:12:12.511Z,12.05
2022-08-17T03:14:41.645Z,13.23
2022-08-17T03:17:10.033Z,13.05
2022-08-17T03:19:42.976Z,12.65
2022-08-17T03:22:36.540Z,12.57
2022-08-17T03:24:57.852Z,13.50
2022-08-17T03:27:24.625Z,12.73
2022-08-17T03:29:51.437Z,11.95
2022-08-17T03:32:20.550Z,13.25
2022-08-17T03:34:47.450Z,12.02
2022-08-17T03:37:15.013Z,12.15
2022-08-17T03:39:42.871Z,12.65
2022-08-17T03:42:32.215Z,12.90
2022-08-17T03:44:59.694Z,12.68
2022-08-17T03:47:45.115Z,10.02
2022-08-17T03:50:30.636Z,10.20
2022-08-17T03:53:15.921Z,11.93
2022-08-17T03:56:01.370Z,10.63
2022-08-17T03:58:28.495Z,11.20
2022-08-17T04:00:55.315Z,12.15
2022-08-17T04:03:22.076Z,12.30
2022-08-17T04:05:48.891Z,11.95
2022-08-17T04:08:15.682Z,12.50
2022-08-17T04:10:44.906Z,11.57
2022-08-17T04:13:12.383Z,12.07
2022-08-17T04:15:39.193Z,12.93
2022-08-17T04:18:07.514Z,11.90
2022-08-17T04:20:35.883Z,13.38
2022-08-17T04:23:05.269Z,12.30
2022-08-17T04:25:34.693Z,12.90
2022-08-17T04:28:01.838Z,13.43
2022-08-17T04:30:29.710Z,13.15
2022-08-17T04:33:06.195Z,14.02
2022-08-17T04:35:39.968Z,13.13
2022-08-17T04:38:09.764Z,13.10
2022-08-17T04:40:55.340Z,14.13
2022-08-17T04:43:23.739Z,13.23
2022-08-17T04:45:56.037Z,11.63
2022-08-17T04:48:50.630Z,12.07
2022-08-17T04:51:23.808Z,11.40
2022-08-17T04:53:54.626Z,12.57
2022-08-17T04:56:21.902Z,12.35
2022-08-17T04:58:50.723Z,13.57
2022-08-17T05:01:23.970Z,12.55
2022-08-17T05:06:21.621Z,13.75
2022-08-17T05:08:48.424Z,11.93
2022-08-17T05:11:15.780Z,14.05
2022-08-17T05:13:44.727Z,13.43
2022-08-17T05:16:11.961Z,12.98
2022-08-17T05:18:39.072Z,13.65
2022-08-17T05:21:06.691Z,13.60
2022-08-17T05:23:42.038Z,14.45
2022-08-17T05:26:19.844Z,13.75
2022-08-17T05:28:52.636Z,13.82
2022-08-17T05:31:21.019Z,12.63
2022-08-17T05:33:49.458Z,12.98
2022-08-17T05:36:41.902Z,12.43
2022-08-17T05:39:04.681Z,12.18
2022-08-17T05:41:31.493Z,13.43
2022-08-17T05:43:58.209Z,13.40
2022-08-17T05:46:30.455Z,13.23
2022-08-17T05:49:01.624Z,13.82
2022-08-17T05:51:56.881Z,12.98
2022-08-17T05:54:56.388Z,14.13
2022-08-17T05:57:47.424Z,13.07
2022-08-17T06:01:07.611Z,13.68
2022-08-17T06:03:37.144Z,13.25
2022-08-17T06:06:22.268Z,14.38
2022-08-17T06:09:14.891Z,13.95
2022-08-17T06:11:55.078Z,14.98
2022-08-17T06:14:36.071Z,14.70
2022-08-17T06:17:04.987Z,14.40
2022-08-17T06:19:48.072Z,15.27
2022-08-17T06:22:16.851Z,15.90
2022-08-17T06:25:01.128Z,18.42
2022-08-17T06:27:45.440Z,20.88
2022-08-17T06:30:18.501Z,19.13
2022-08-17T06:32:46.271Z,20.10
2022-08-17T06:35:19.061Z,21.33
2022-08-17T06:38:09.224Z,26.80
2022-08-17T06:41:15.215Z,35.78
2022-08-17T06:43:54.060Z,40.55
2022-08-17T06:46:39.244Z,40.22
2022-08-17T06:49:14.782Z,38.55
2022-08-17T06:51:46.325Z,41.63
2022-08-17T06:54:25.192Z,42.60
2022-08-17T06:57:14.552Z,40.05
2022-08-17T07:00:14.893Z,39.33
2022-08-17T07:02:53.625Z,40.90
2022-08-17T07:05:22.670Z,40.13
2022-08-17T07:08:35.079Z,40.67
2022-08-17T07:11:04.411Z,39.67
2022-08-17T07:13:44.445Z,39.20
2022-08-17T07:16:25.831Z,38.78
2022-08-17T07:18:53.108Z,39.63
2022-08-17T07:21:42.237Z,40.40
2022-08-17T07:24:29.189Z,36.63
2022-08-17T07:27:23.242Z,40.05
2022-08-17T07:30:08.049Z,39.20
2022-08-17T07:32:53.471Z,40.50
2022-08-17T07:35:31.328Z,37.88
2022-08-17T07:38:25.603Z,37.63
2022-08-17T07:41:02.815Z,39.13
2022-08-17T07:43:31.194Z,38.97
2022-08-17T07:46:20.107Z,37.08
2022-08-17T07:48:49.798Z,35.80
2022-08-17T07:51:25.579Z,35.70
2022-08-17T07:54:13.221Z,35.75
2022-08-17T07:56:49.437Z,37.70
2022-08-17T07:59:24.119Z,35.05
2022-08-17T08:01:58.137Z,38.28
2022-08-17T08:07:29.488Z,39.20
2022-08-17T08:10:00.422Z,38.38
2022-08-17T08:12:33.778Z,40.17
2022-08-17T08:15:02.171Z,42.08
2022-08-17T08:17:35.687Z,41.75
2022-08-17T08:23:08.474Z,44.80
2022-08-17T08:25:44.269Z,42.75
2022-08-17T08:28:47.492Z,42.33
2022-08-17T08:31:37.749Z,40.20
2022-08-17T08:34:47.380Z,40.70
2022-08-17T08:37:49.943Z,37.70
2022-08-17T08:40:19.876Z,41.35
2022-08-17T08:43:03.985Z,39.88
2022-08-17T08:46:04.810Z,39.15
2022-08-17T08:48:53.000Z,39.65
2022-08-17T08:51:37.170Z,40.42
2022-08-17T08:54:15.263Z,38.58
2022-08-17T08:57:04.973Z,39.15
2022-08-17T09:00:04.848Z,38.53
2022-08-17T09:02:59.366Z,37.15
2022-08-17T09:05:32.812Z,35.22
2022-08-17T09:10:32.447Z,33.17
2022-08-17T09:13:56.218Z,33.08
2022-08-17T09:16:29.869Z,34.78
2022-08-17T09:19:15.334Z,35.80
2022-08-17T09:21:48.417Z,34.05
2022-08-17T09:24:40.046Z,34.95
2022-08-17T09:27:11.529Z,33.13
2022-08-17T09:29:40.750Z,32.83
2022-08-17T09:32:35.620Z,32.00
2022-08-17T09:35:06.093Z,29.65
2022-08-17T09:37:34.601Z,29.90
2022-08-17T09:40:26.005Z,30.73
2022-08-17T09:43:18.751Z,29.75
2022-08-17T09:45:46.300Z,30.45
2022-08-17T09:48:25.018Z,28.05
2022-08-17T09:51:10.249Z,29.20
2022-08-17T09:53:38.004Z,27.67
2022-08-17T09:56:13.484Z,26.60
2022-08-17T09:59:16.875Z,24.77
2022-08-17T10:02:13.624Z,26.38
2022-08-17T10:04:53.857Z,25.95
2022-08-17T10:07:55.986Z,22.20
2022-08-17T10:10:26.057Z,22.27
2022-08-17T10:13:33.643Z,21.52
2022-08-17T10:16:30.973Z,23.50
2022-08-17T10:19:09.594Z,19.83
2022-08-17T10:22:01.205Z,19.48
2022-08-17T10:25:22.824Z,19.42
2022-08-17T10:27:54.464Z,20.25
2022-08-17T10:30:23.794Z,18.65
2022-08-17T10:32:59.226Z,20.52
2022-08-17T10:36:01.235Z,21.42
2022-08-17T10:38:46.380Z,19.13
2022-08-17T10:41:24.464Z,21.15
2022-08-17T10:44:40.888Z,18.95
2022-08-17T10:46:56.266Z,17.25
2022-08-17T10:49:26.025Z,17.83
2022-08-17T10:51:57.693Z,19.85
2022-08-17T10:54:24.768Z,21.98
2022-08-17T10:56:52.922Z,21.85
2022-08-17T10:59:34.952Z,20.10
2022-08-17T11:02:15.563Z,21.02
2022-08-17T11:05:00.695Z,19.33
2022-08-17T11:07:54.965Z,18.55
2022-08-17T11:10:42.645Z,17.80
2022-08-17T11:13:28.064Z,17.70
2022-08-17T11:16:08.887Z,16.63
2022-08-17T11:19:10.415Z,17.23
2022-08-17T11:22:15.942Z,16.15
2022-08-17T11:24:48.251Z,15.07
2022-08-17T11:27:31.142Z,15.50
2022-08-17T11:30:02.104Z,14.35
2022-08-17T11:32:48.838Z,15.70
2022-08-17T11:35:21.373Z,14.85
2022-08-17T11:38:03.217Z,13.95
2022-08-17T11:40:43.108Z,13.43
2022-08-17T11:43:21.305Z,12.15
2022-08-17T11:46:16.472Z,11.90
2022-08-17T11:49:26.788Z,12.05
2022-08-17T11:52:01.185Z,13.68
2022-08-17T11:54:33.210Z,15.95
2022-08-17T11:57:21.473Z,16.13
2022-08-17T11:59:48.378Z,18.25
2022-08-17T12:02:34.876Z,15.85
2022-08-17T12:05:17.167Z,14.93
2022-08-17T12:07:47.114Z,15.30
2022-08-17T12:10:16.091Z,15.80
2022-08-17T12:12:44.154Z,15.30
2022-08-17T12:15:19.094Z,14.77
2022-08-17T12:17:53.823Z,16.23
2022-08-17T12:20:23.045Z,16.25
2022-08-17T12:23:03.588Z,15.18
2022-08-17T12:25:46.903Z,16.50
2022-08-17T12:28:35.073Z,14.38
2022-08-17T12:31:03.934Z,13.65
2022-08-17T12:33:30.733Z,13.90
2022-08-17T12:36:05.383Z,15.85
2022-08-17T12:38:34.595Z,14.32
2022-08-17T12:41:25.264Z,16.02
2022-08-17T12:44:01.666Z,12.27
2022-08-17T12:47:22.730Z,14.68
2022-08-17T12:49:54.077Z,12.93
2022-08-17T12:52:25.065Z,13.25
2022-08-17T12:54:54.639Z,12.68
2022-08-17T12:57:33.567Z,11.80
2022-08-17T13:00:30.550Z,12.25
2022-08-17T13:03:07.813Z,10.88
2022-08-17T13:05:38.521Z,11.50
2022-08-17T13:08:14.766Z,13.00
2022-08-17T13:10:41.720Z,11.35
2022-08-17T13:13:23.350Z,12.68
2022-08-17T13:15:54.866Z,12.43
2022-08-17T13:18:36.519Z,12.43
2022-08-17T13:21:03.381Z,11.60
2022-08-17T13:23:32.302Z,11.25
2022-08-17T13:26:06.774Z,12.00
2022-08-17T13:28:36.112Z,10.30
2022-08-17T13:31:32.931Z,12.68
2022-08-17T13:34:25.290Z,12.15
2022-08-17T13:39:41.639Z,11.52
2022-08-17T13:42:31.610Z,12.27
2022-08-17T13:44:58.606Z,12.48
2022-08-17T13:47:25.458Z,12.15
2022-08-17T13:49:52.296Z,10.80
2022-08-17T13:52:35.523Z,12.15
2022-08-17T13:55:08.591Z,10.68
2022-08-17T13:57:35.570Z,11.95
2022-08-17T14:00:17.861Z,9.07
2022-08-17T14:02:44.711Z,6.70
2022-08-17T14:05:12.028Z,7.72
2022-08-17T14:07:40.024Z,6.25
2022-08-17T14:10:15.261Z,7.40
2022-08-17T14:12:42.594Z,6.70
2022-08-17T14:15:10.286Z,6.53
2022-08-17T14:17:39.041Z,7.00
2022-08-17T14:20:17.200Z,6.25
2022-08-17T14:22:45.843Z,5.63
2022-08-17T14:25:14.266Z,5.18
2022-08-17T14:27:41.727Z,5.90
2022-08-17T14:30:20.083Z,6.20
2022-08-17T14:32:49.032Z,5.85
2022-08-17T14:35:15.981Z,5.10
2022-08-17T14:37:44.695Z,5.60
2022-08-17T14:40:13.690Z,4.68
2022-08-17T14:42:41.789Z,7.18
2022-08-17T14:45:30.206Z,5.95
2022-08-17T14:47:57.269Z,5.35
2022-08-17T14:50:24.397Z,4.85
2022-08-17T14:52:51.189Z,4.90
2022-08-17T14:55:18.786Z,5.78
2022-08-17T14:57:45.663Z,5.38
2022-08-17T15:00:12.891Z,4.20
2022-08-17T15:02:48.179Z,4.50
2022-08-17T15:05:15.973Z,4.93
2022-08-17T15:07:44.433Z,4.13
2022-08-17T15:10:14.745Z,5.55
2022-08-17T15:12:41.828Z,6.15
2022-08-17T15:15:10.497Z,5.72
2022-08-17T15:17:54.739Z,8.10
2022-08-17T15:20:27.845Z,8.57
2022-08-17T15:22:58.729Z,7.70
2022-08-17T15:25:26.565Z,7.88
2022-08-17T15:27:54.128Z,8.07
2022-08-17T15:30:21.005Z,9.00
2022-08-17T15:32:54.512Z,9.07
2022-08-17T15:35:28.304Z,8.95
2022-08-17T15:40:23.664Z,7.38
2022-08-17T15:42:51.120Z,6.78
2022-08-17T15:45:17.964Z,7.68
2022-08-17T15:47:45.019Z,6.00
2022-08-17T15:50:12.259Z,7.13
2022-08-17T15:52:42.226Z,6.15
2022-08-17T15:55:14.275Z,6.45
2022-08-17T15:57:41.212Z,7.70
2022-08-17T16:00:09.430Z,5.85
2022-08-17T16:03:13.486Z,6.30
2022-08-17T16:05:24.921Z,5.57
2022-08-17T16:07:52.275Z,5.70
2022-08-17T16:10:19.698Z,5.00
2022-08-17T16:12:47.396Z,4.80
2022-08-17T16:15:14.653Z,4.78
2022-08-17T16:17:41.770Z,3.70
2022-08-17T16:20:20.906Z,4.45
2022-08-17T16:22:48.648Z,3.90
2022-08-17T16:25:18.717Z,4.15
2022-08-17T16:27:46.583Z,3.63
2022-08-17T16:30:17.371Z,3.90
2022-08-17T16:32:45.058Z,3.40
2022-08-17T16:35:14.323Z,3.80
2022-08-17T16:37:45.412Z,3.30
2022-08-17T16:40:13.017Z,4.20
2022-08-17T16:42:40.194Z,3.83
2022-08-17T16:45:08.775Z,4.20
2022-08-17T16:47:35.822Z,5.43
2022-08-17T16:50:04.503Z,4.30
2022-08-17T16:52:32.662Z,3.80
2022-08-17T16:55:01.390Z,4.47
2022-08-17T16:57:29.119Z,4.00
2022-08-17T16:59:56.014Z,3.55
2022-08-17T17:02:28.457Z,3.63
2022-08-17T17:05:32.509Z,4.18
2022-08-17T17:08:07.721Z,4.47
2022-08-17T17:10:48.694Z,4.38
2022-08-17T17:13:27.646Z,4.53
2022-08-17T17:15:59.612Z,4.95
2022-08-17T17:18:42.719Z,4.60
2022-08-17T17:21:13.775Z,5.40
2022-08-17T17:23:42.918Z,5.47
2022-08-17T17:27:08.593Z,5.38
2022-08-17T17:29:56.645Z,6.13
2022-08-17T17:33:00.195Z,5.70
2022-08-17T17:35:49.689Z,5.88
2022-08-17T17:38:20.089Z,6.88
2022-08-17T17:40:50.265Z,5.65
2022-08-17T17:43:40.005Z,6.55
2022-08-17T17:46:28.637Z,6.32
2022-08-17T17:48:56.974Z,5.88
2022-08-17T17:52:05.884Z,6.63
2022-08-17T17:54:32.551Z,6.25
2022-08-17T17:57:15.331Z,6.35
2022-08-17T18:00:21.979Z,6.13
2022-08-17T18:02:57.999Z,5.63
2022-08-17T18:05:51.045Z,6.05
2022-08-17T18:08:46.781Z,5.88
2022-08-17T18:11:37.094Z,7.00
2022-08-17T18:14:33.181Z,7.18
2022-08-17T18:17:00.533Z,6.70
2022-08-17T18:19:28.703Z,7.40
2022-08-17T18:22:07.341Z,6.88
2022-08-17T18:24:42.008Z,6.47
2022-08-17T18:27:25.204Z,7.43
2022-08-17T18:29:53.576Z,6.55
2022-08-17T18:32:29.302Z,6.03
2022-08-17T18:35:00.353Z,7.03
2022-08-17T18:37:55.581Z,7.07
2022-08-17T18:40:25.573Z,6.95
2022-08-17T18:43:00.021Z,6.80
2022-08-17T18:45:47.933Z,7.63
2022-08-17T18:48:36.757Z,9.38
2022-08-17T18:51:41.384Z,8.05
2022-08-17T18:54:23.977Z,8.65
2022-08-17T18:56:58.934Z,8.05
2022-08-17T18:59:39.385Z,8.38
2022-08-17T19:02:22.097Z,9.13
2022-08-17T19:05:08.733Z,8.95
2022-08-17T19:07:39.860Z,9.25
2022-08-17T19:10:23.532Z,8.90
2022-08-17T19:13:12.253Z,8.85
2022-08-17T19:15:42.121Z,9.07
2022-08-17T19:18:17.009Z,8.88
2022-08-17T19:20:46.192Z,8.57
2022-08-17T19:23:40.840Z,7.63
2022-08-17T19:26:53.588Z,7.40
2022-08-17T19:29:37.499Z,7.50
2022-08-17T19:32:04.589Z,8.55
2022-08-17T19:34:34.006Z,7.60
2022-08-17T19:37:33.343Z,8.95
2022-08-17T19:40:48.828Z,6.85
2022-08-17T19:43:19.481Z,9.63
2022-08-17T19:46:08.097Z,6.85
2022-08-17T19:49:04.113Z,6.93
2022-08-17T19:51:34.621Z,7.47
2022-08-17T19:54:30.963Z,6.80
2022-08-17T19:57:34.122Z,6.20
2022-08-17T20:00:27.441Z,6.20
2022-08-17T20:02:57.156Z,6.50
2022-08-17T20:06:08.621Z,7.20
2022-08-17T20:09:15.070Z,7.63
2022-08-17T20:11:49.922Z,7.70
2022-08-17T20:14:22.442Z,6.28
2022-08-17T20:16:49.463Z,7.03
2022-08-17T20:19:41.167Z,6.78
2022-08-17T20:22:15.594Z,6.35
2022-08-17T20:24:54.268Z,7.00
2022-08-17T20:27:31.331Z,7.55
2022-08-17T20:30:10.353Z,7.07
2022-08-17T20:32:51.945Z,8.15
2022-08-17T20:35:22.387Z,7.88
2022-08-17T20:38:01.414Z,8.10
2022-08-17T20:40:38.577Z,8.27
2022-08-17T20:43:33.565Z,7.82
2022-08-17T20:46:12.306Z,8.45
2022-08-17T20:48:44.718Z,8.88
2022-08-17T20:51:29.595Z,9.13
2022-08-17T20:54:06.517Z,9.45
2022-08-17T20:57:00.525Z,9.43
2022-08-17T20:59:28.517Z,9.95
2022-08-17T21:02:18.139Z,10.75
2022-08-17T21:04:52.676Z,10.68
2022-08-17T21:07:43.087Z,10.02
2022-08-17T21:10:14.012Z,9.88
2022-08-17T21:12:48.660Z,9.55
2022-08-17T21:15:44.197Z,9.80
2022-08-17T21:18:38.830Z,10.18
2022-08-17T21:21:26.831Z,9.48
2022-08-17T21:24:21.582Z,9.48
2022-08-17T21:27:21.035Z,10.15
2022-08-17T21:30:15.987Z,9.27
2022-08-17T21:33:04.881Z,9.23
2022-08-17T21:35:58.714Z,9.10
2022-08-17T21:41:01.428Z,8.85
2022-08-17T21:43:32.029Z,9.48
2022-08-17T21:46:03.404Z,7.50
2022-08-17T21:48:32.369Z,8.38
2022-08-17T21:51:01.628Z,7.55
2022-08-17T21:53:40.527Z,8.57
2022-08-17T21:56:07.493Z,7.65
2022-08-17T21:58:40.220Z,8.85
2022-08-17T22:01:10.558Z,7.53
2022-08-17T22:03:38.788Z,8.13
2022-08-17T22:06:24.200Z,8.52
2022-08-17T22:09:21.269Z,8.05
2022-08-17T22:11:58.841Z,7.88
2022-08-17T22:15:04.010Z,8.18
2022-08-17T22:17:40.382Z,7.43
2022-08-17T22:20:09.543Z,8.15
2022-08-17T22:23:16.980Z,7.80
2022-08-17T22:26:12.866Z,7.43
2022-08-17T22:29:37.412Z,7.93
2022-08-17T22:32:08.515Z,8.30
2022-08-17T22:34:35.714Z,8.25
2022-08-17T22:37:27.255Z,9.60
2022-08-17T22:39:58.520Z,8.25
2022-08-17T22:42:25.609Z,9.00
2022-08-17T22:44:53.214Z,8.60
2022-08-17T22:47:23.009Z,8.32
2022-08-17T22:49:56.527Z,8.00
2022-08-17T22:52:32.166Z,7.85
2022-08-17T22:55:30.767Z,8.77
2022-08-17T22:58:16.038Z,8.00
2022-08-17T23:00:47.386Z,8.82
2022-08-17T23:03:18.275Z,7.60
2022-08-17T23:06:08.233Z,8.65
2022-08-17T23:08:43.394Z,7.95
2022-08-17T23:11:10.189Z,8.05
2022-08-17T23:13:37.611Z,7.38
2022-08-17T23:16:04.584Z,7.93
2022-08-17T23:18:31.353Z,7.07
2022-08-17T23:20:58.116Z,7.70
2022-08-17T23:23:26.579Z,6.85
2022-08-17T23:25:54.546Z,6.68
2022-08-17T23:28:21.859Z,6.53
2022-08-17T23:30:48.644Z,6.55
2022-08-17T23:33:26.752Z,6.65
2022-08-17T23:35:54.131Z,6.68
2022-08-17T23:38:21.869Z,6.40
2022-08-17T23:40:48.645Z,6.30
2022-08-17T23:43:24.059Z,6.32
2022-08-17T23:45:52.368Z,6.47
2022-08-17T23:48:28.652Z,6.03
2022-08-17T23:51:03.989Z,6.25
2022-08-17T23:53:32.831Z,6.25
2022-08-17T23:56:06.915Z,6.13
2022-08-17T23:58:42.091Z,6.65
